Mattice, Canada
Current Conditions -  °F | °C
As of 12:00 AM on Wednesday 22 Oct 2014 (Local Time) from CYYU Reporting Station
Light Fog Light Fog  
Wind Chill: 25°   Ceiling: Unl
Heat Index: 25°   Visibility: 15mi
Dew Point: 23°   Wind: 2mph
Humidity: 93%   Direction: 130°SE
Pressure: 30.36"   Gusts: NA
Location:  49.61°N, 83.26°W
Report Text: CYYU 220400Z 13002KT 15SM MIFG SKC M04/M05 A3036 RMK SLP294
Loading
Personal Weather Stations






























Interactive Weather Map
Tropical Storm Tracking
New forecast layout! Learn more

10-Day Weather Forecast

Advertisements
Track Severe Weather on mobile